Weather History for Shenandoah, IA

Change the Weather History Date:

Tuesday, December 24, 2013

  Actual Average Record
Temperature  
Mean Temperature 4 °F -  
Max Temperature 24 °F 32 °F 57 °F (1955)
Min Temperature -16 °F 13 °F -22 °F (1989)
Degree Days  
Heating Degree Days 61    
Moisture  
Dew Point 3 °F    
Average Humidity 77    
Maximum Humidity 100    
Minimum Humidity 62    
Precipitation  
Precipitation 0.00 in - - ()
Sea Level Pressure  
Sea Level Pressure 30.34 in    
Wind  
Wind Speed 7 mph (SSE)    
Max Wind Speed 18 mph    
Max Gust Speed 25 mph    
Visibility 10 miles    
Events Rain    
Averages and records for this station are not official NWS values.
T = Trace of Precipitation, MM = Missing Value Source: NWS Daily Summary

Daily Weather History Graph

Daily Weather History Graph

Search for Another Location

Airport:

Trip Planner

Search our weather history database for the weather conditions in past years. The results will help you decide how hot, cold, wet, or windy it might be!

Date:

Astronomy

Dec. 24, 2013 Rise Set
Actual Time 7:43 AM CST 4:59 PM CST
Civil Twilight 7:12 AM CST 5:30 PM CST
Nautical Twilight 6:38 AM CST 6:04 PM CST
Astronomical Twilight 6:04 AM CST 6:38 PM CST
Moon No Moon Rise 11:36 AM CST (12/24)
Length of Visible Light 10h 17m
Length of Day
9h 15m
Waning Gibbous, 58% of the Moon is Illuminated
Dec 24
Waning Gibbous
Dec 25
Last Quarter
Jan 1
New
Jan 7
First Quarter
Jan 15
Full

Hourly Weather History & Observations

Time (CST) Temp. Windchill Dew Point Humidity Pressure Visibility Wind Dir Wind Speed Gust Speed Precip Events Conditions
12:15 AM -14.8 °F - -20.2 °F 77% 30.58 in 10.0 mi Calm Calm - N/A   Clear
12:35 AM -14.8 °F -27.2 °F -20.2 °F 77% 30.57 in 10.0 mi NE 4.6 mph - N/A   Scattered Clouds
12:55 AM -16.6 °F -32.9 °F -20.2 °F 84% 30.56 in 10.0 mi NE 6.9 mph - N/A   Scattered Clouds
1:15 AM -16.6 °F -34.4 °F -22.0 °F 76% 30.55 in 10.0 mi NE 8.1 mph - N/A   Mostly Cloudy
1:35 AM -16.6 °F - -22.0 °F 76% 30.54 in 10.0 mi Calm Calm - N/A   Mostly Cloudy
1:55 AM -16.6 °F -29.3 °F -22.0 °F 76% 30.54 in 10.0 mi ENE 4.6 mph - N/A   Mostly Cloudy
2:15 AM -14.8 °F - -20.2 °F 77% 30.54 in 10.0 mi Calm Calm - N/A   Clear
2:35 AM -16.6 °F - -20.2 °F 84% 30.53 in 10.0 mi Calm Calm - N/A   Mostly Cloudy
2:55 AM -14.8 °F -24.8 °F -20.2 °F 77% 30.53 in 10.0 mi NE 3.5 mph - N/A   Overcast
3:15 AM -13.0 °F -25.1 °F -16.6 °F 84% 30.53 in 10.0 mi NNE 4.6 mph - N/A   Overcast
3:35 AM -9.4 °F -20.9 °F -14.8 °F 77% 30.52 in 10.0 mi NNE 4.6 mph - N/A   Overcast
3:55 AM -7.6 °F -18.8 °F -13.0 °F 77% 30.51 in 10.0 mi NE 4.6 mph - N/A   Overcast
4:15 AM -7.6 °F -18.8 °F -13.0 °F 77% 30.49 in 10.0 mi Variable 4.6 mph - N/A   Overcast
4:35 AM -5.8 °F - -11.2 °F 77% 30.49 in 10.0 mi Calm Calm - N/A   Overcast
4:55 AM -4.0 °F - -7.6 °F 85% 30.48 in 10.0 mi Calm Calm - N/A   Overcast
5:15 AM 1.4 °F -9.9 °F -2.2 °F 85% 30.47 in 10.0 mi SE 5.8 mph - N/A   Overcast
5:35 AM 1.4 °F -12.5 °F -4.0 °F 78% 30.46 in 10.0 mi SE 8.1 mph - N/A   Overcast
5:55 AM 1.4 °F -8.3 °F -4.0 °F 78% 30.46 in 10.0 mi SSE 4.6 mph - N/A   Overcast
6:15 AM 3.2 °F -4.2 °F -2.2 °F 78% 30.45 in 10.0 mi SSE 3.5 mph - N/A   Overcast
6:35 AM 3.2 °F -7.8 °F -2.2 °F 78% 30.45 in 10.0 mi SSE 5.8 mph - N/A   Overcast
6:55 AM 5.0 °F -5.6 °F -0.4 °F 78% 30.43 in 10.0 mi SSE 5.8 mph - N/A   Overcast
7:15 AM 5.0 °F -11.6 °F -0.4 °F 78% 30.42 in 10.0 mi SSE 12.7 mph - N/A   Scattered Clouds
7:35 AM 5.0 °F -12.3 °F -0.4 °F 78% 30.42 in 10.0 mi SSE 13.8 mph - N/A   Clear
7:55 AM 5.0 °F -10.8 °F -0.4 °F 78% 30.42 in 10.0 mi SSE 11.5 mph - N/A   Clear
8:15 AM 5.0 °F -12.3 °F -0.4 °F 78% 30.41 in 10.0 mi SSE 13.8 mph - N/A   Mostly Cloudy
8:35 AM 6.8 °F -9.3 °F -0.4 °F 72% 30.41 in 10.0 mi SSE 12.7 mph 18.4 mph N/A   Overcast
8:55 AM 6.8 °F -10.7 °F -0.4 °F 72% 30.41 in 10.0 mi SSE 15.0 mph - N/A   Overcast
9:15 AM 6.8 °F -10.7 °F 1.4 °F 79% 30.40 in 10.0 mi SSE 15.0 mph - N/A   Overcast
9:35 AM 8.6 °F -9.5 °F 1.4 °F 73% 30.40 in 10.0 mi SSE 17.3 mph - N/A   Overcast
9:55 AM 10.4 °F -5.4 °F 3.2 °F 73% 30.40 in 10.0 mi SSE 13.8 mph 19.6 mph N/A   Overcast
10:15 AM 10.4 °F -6.6 °F 3.2 °F 73% 30.39 in 10.0 mi SSE 16.1 mph - N/A   Scattered Clouds
10:35 AM 10.4 °F -6.6 °F 3.2 °F 73% 30.38 in 10.0 mi SSE 16.1 mph - N/A   Mostly Cloudy
10:55 AM 10.4 °F -6.6 °F 3.2 °F 73% 30.38 in 10.0 mi SSE 16.1 mph 21.9 mph N/A   Overcast
11:15 AM 10.4 °F -6.6 °F 3.2 °F 73% 30.37 in 10.0 mi SSE 16.1 mph - N/A   Overcast
11:35 AM 12.2 °F -4.3 °F 3.2 °F 67% 30.35 in 10.0 mi SSE 16.1 mph - N/A   Overcast
11:55 AM 12.2 °F -3.1 °F 3.2 °F 67% 30.35 in 10.0 mi SSE 13.8 mph - N/A   Overcast
12:15 PM 12.2 °F -2.5 °F 3.2 °F 67% 30.32 in 10.0 mi SSE 12.7 mph 19.6 mph N/A   Overcast
12:35 PM 14.0 °F -1.4 °F 3.2 °F 62% 30.30 in 10.0 mi SE 15.0 mph - N/A   Overcast
12:55 PM 14.0 °F -3.0 °F 5.0 °F 67% 30.27 in 10.0 mi SSE 18.4 mph 25.3 mph N/A   Scattered Clouds
1:15 PM 14.0 °F -0.8 °F 5.0 °F 67% 30.26 in 10.0 mi SSE 13.8 mph 25.3 mph N/A   Partly Cloudy
1:35 PM 14.0 °F -1.4 °F 6.8 °F 73% 30.24 in 7.0 mi SSE 15.0 mph - N/A Rain Light Freezing Rain
1:55 PM 15.8 °F -0.6 °F 6.8 °F 68% 30.22 in 10.0 mi SSE 18.4 mph - N/A   Mostly Cloudy
2:15 PM 15.8 °F 2.1 °F 6.8 °F 68% 30.22 in 10.0 mi SSE 12.7 mph 19.6 mph N/A   Overcast
2:35 PM 15.8 °F 0.3 °F 6.8 °F 68% 30.19 in 10.0 mi SSE 16.1 mph 23.0 mph N/A   Overcast
2:55 PM 15.8 °F 2.7 °F 6.8 °F 68% 30.20 in 10.0 mi SSE 11.5 mph - N/A   Overcast
3:15 PM 17.6 °F 4.3 °F 8.6 °F 68% 30.20 in 10.0 mi SSE 12.7 mph 20.7 mph N/A   Overcast
3:35 PM 17.6 °F 4.3 °F 8.6 °F 68% 30.21 in 10.0 mi South 12.7 mph 20.7 mph N/A   Overcast
3:55 PM 17.6 °F 4.3 °F 8.6 °F 68% 30.21 in 10.0 mi South 12.7 mph 19.6 mph N/A   Overcast
4:15 PM 17.6 °F 6.4 °F 10.4 °F 73% 30.20 in 10.0 mi SSE 9.2 mph - N/A   Overcast
4:35 PM 17.6 °F 5.7 °F 10.4 °F 73% 30.20 in 10.0 mi SSE 10.4 mph - N/A   Overcast
4:55 PM 17.6 °F 7.3 °F 10.4 °F 73% 30.22 in 10.0 mi South 8.1 mph - N/A   Overcast
5:15 PM 17.6 °F 6.4 °F 10.4 °F 73% 30.22 in 10.0 mi South 9.2 mph - N/A   Overcast
5:35 PM 17.6 °F 5.0 °F 10.4 °F 73% 30.21 in 10.0 mi SSE 11.5 mph - N/A   Overcast
5:55 PM 19.4 °F 7.2 °F 10.4 °F 68% 30.21 in 10.0 mi SSE 11.5 mph - N/A   Overcast
6:15 PM 19.4 °F 9.5 °F 12.2 °F 74% 30.21 in 10.0 mi South 8.1 mph - N/A   Overcast
6:35 PM 19.4 °F 8.6 °F 12.2 °F 74% 30.21 in 10.0 mi SSE 9.2 mph - N/A   Overcast
6:55 PM 19.4 °F 8.6 °F 12.2 °F 74% 30.22 in 10.0 mi SSE 9.2 mph - N/A   Overcast
7:15 PM 19.4 °F 8.6 °F 14.0 °F 80% 30.22 in 10.0 mi SSE 9.2 mph - N/A   Overcast
7:35 PM 19.4 °F 7.9 °F 14.0 °F 80% 30.21 in 10.0 mi SSE 10.4 mph - N/A   Overcast
7:55 PM 21.2 °F 10.1 °F 14.0 °F 74% 30.22 in 10.0 mi SSE 10.4 mph - N/A   Overcast
8:15 PM 21.2 °F 10.9 °F 15.8 °F 80% 30.23 in 10.0 mi South 9.2 mph - N/A   Overcast
8:35 PM 21.2 °F 10.1 °F 15.8 °F 80% 30.22 in 10.0 mi South 10.4 mph - N/A   Overcast
8:55 PM 21.2 °F 12.6 °F 15.8 °F 80% 30.22 in 10.0 mi South 6.9 mph - N/A   Overcast
9:15 PM 21.2 °F 10.1 °F 17.6 °F 86% 30.23 in 8.0 mi South 10.4 mph - N/A   Overcast
9:35 PM 21.2 °F 11.7 °F 17.6 °F 86% 30.23 in 9.0 mi SSW 8.1 mph - N/A   Overcast
9:55 PM 23.0 °F 13.9 °F 19.4 °F 86% 30.22 in 10.0 mi SSW 8.1 mph - N/A   Overcast
10:15 PM 23.0 °F 13.9 °F 21.2 °F 93% 30.22 in 9.0 mi SSW 8.1 mph - N/A   Overcast
10:35 PM 23.0 °F 13.9 °F 21.2 °F 93% 30.22 in 6.0 mi SW 8.1 mph - N/A   Overcast
10:55 PM 24.8 °F 15.3 °F 23.0 °F 93% 30.21 in 3.0 mi SW 9.2 mph - N/A   Overcast
11:15 PM 24.8 °F 16.1 °F 23.0 °F 93% 30.21 in 3.0 mi SW 8.1 mph - N/A   Overcast
11:35 PM 24.8 °F 17.9 °F 23.0 °F 93% 30.22 in 4.0 mi West 5.8 mph - N/A   Overcast
11:55 PM 24.8 °F 16.1 °F 24.8 °F 100% 30.22 in 4.0 mi WSW 8.1 mph - N/A   Overcast